KFTY/FTY METAR and TAF weather

Enter ICAO airport designator
Station Type Date Time Source
KFTY METAR 2020/02/24 07:53 UTC NOAA

KFTY 240753Z 00000KT 10SM BKN065 OVC080 08/04 A3009 RMK AO2 SLP190 T00830044


Station Type Date Time Source
KFTY Decoded METAR 2020/02/24 07:53 UTC NOAA

ATLANTA FULTON COUNTY AIRPORT , GA, United States (KFTY) 33-47N 84-31W 263M
Feb 24, 2020 - 02:53 AM EST / 2020.02.24 0753 UTC
Wind: Calm:0
Visibility: 10 mile(s):0
Sky conditions: overcast
Temperature: 46.9 F (8.3 C)
Dew Point: 39.9 F (4.4 C)
Relative Humidity: 76%
Pressure (altimeter): 30.09 in. Hg (1018 hPa)
ob: KFTY 240753Z 00000KT 10SM BKN065 OVC080 08/04 A3009 RMK AO2 SLP190 T00830044
cycle: 8

Station Type Date Time Source
KFTY TAF 2020/02/24 06:39 UTC NOAA

TAF KFTY 240537Z 2406/2506 VRB03KT P6SM VCSH OVC060
TEMPO 2408/2412 -SHRA OVC040
FM241200 13004KT P6SM -SHRA OVC035
FM241400 11005KT 5SM -SHRA BR SCT008 OVC015
FM241700 12007KT 3SM -SHRA BR OVC005
FM242300 12007KT 2SM -SHRA BR OVC004

Example: see airport list